sensor_id;sensor_type;location;lat;lon;timestamp;temperature;humidity
69387;SHT31;56575;48.942;8.404;2022-08-03T00:01:17;22.84;54.68
69387;SHT31;56575;48.942;8.404;2022-08-03T00:03:43;22.92;54.27
69387;SHT31;56575;48.942;8.404;2022-08-03T00:06:09;22.97;53.52
69387;SHT31;56575;48.942;8.404;2022-08-03T00:08:34;23.02;52.42
69387;SHT31;56575;48.942;8.404;2022-08-03T00:11:00;23.12;52.58
69387;SHT31;56575;48.942;8.404;2022-08-03T00:13:26;23.09;52.91
69387;SHT31;56575;48.942;8.404;2022-08-03T00:15:52;23.09;53.21
69387;SHT31;56575;48.942;8.404;2022-08-03T00:18:18;23.07;53.12
69387;SHT31;56575;48.942;8.404;2022-08-03T00:20:43;22.98;53.86
69387;SHT31;56575;48.942;8.404;2022-08-03T00:23:10;22.90;53.62
69387;SHT31;56575;48.942;8.404;2022-08-03T00:25:36;22.78;54.09
69387;SHT31;56575;48.942;8.404;2022-08-03T00:28:05;22.74;54.23
69387;SHT31;56575;48.942;8.404;2022-08-03T00:30:31;22.70;54.73
69387;SHT31;56575;48.942;8.404;2022-08-03T00:32:58;22.64;54.42
69387;SHT31;56575;48.942;8.404;2022-08-03T00:35:23;22.57;55.25
69387;SHT31;56575;48.942;8.404;2022-08-03T00:37:50;22.56;56.10
69387;SHT31;56575;48.942;8.404;2022-08-03T00:40:22;22.50;55.79
69387;SHT31;56575;48.942;8.404;2022-08-03T00:43:02;22.40;55.43
69387;SHT31;56575;48.942;8.404;2022-08-03T00:45:35;22.30;56.20
69387;SHT31;56575;48.942;8.404;2022-08-03T00:48:02;22.32;55.85
69387;SHT31;56575;48.942;8.404;2022-08-03T00:50:30;22.26;55.45
69387;SHT31;56575;48.942;8.404;2022-08-03T00:52:58;22.26;55.95
69387;SHT31;56575;48.942;8.404;2022-08-03T00:55:24;22.16;56.51
69387;SHT31;56575;48.942;8.404;2022-08-03T00:57:50;22.13;56.55
69387;SHT31;56575;48.942;8.404;2022-08-03T01:00:20;22.01;56.79
69387;SHT31;56575;48.942;8.404;2022-08-03T01:02:48;22.04;57.45
69387;SHT31;56575;48.942;8.404;2022-08-03T01:05:15;21.97;56.65
69387;SHT31;56575;48.942;8.404;2022-08-03T01:08:07;21.90;57.40
69387;SHT31;56575;48.942;8.404;2022-08-03T01:10:44;21.84;57.24
69387;SHT31;56575;48.942;8.404;2022-08-03T01:18:20;21.74;56.92
69387;SHT31;56575;48.942;8.404;2022-08-03T01:20:48;21.75;57.45
69387;SHT31;56575;48.942;8.404;2022-08-03T01:31:57;21.70;57.03
69387;SHT31;56575;48.942;8.404;2022-08-03T01:34:28;21.63;57.49
69387;SHT31;56575;48.942;8.404;2022-08-03T01:36:56;21.63;57.43
69387;SHT31;56575;48.942;8.404;2022-08-03T01:39:24;21.60;57.41
69387;SHT31;56575;48.942;8.404;2022-08-03T01:41:55;21.56;57.71
69387;SHT31;56575;48.942;8.404;2022-08-03T01:44:29;21.56;57.75
69387;SHT31;56575;48.942;8.404;2022-08-03T01:49:39;21.57;57.54
69387;SHT31;56575;48.942;8.404;2022-08-03T01:52:07;21.53;57.13
69387;SHT31;56575;48.942;8.404;2022-08-03T01:54:48;21.53;57.78
69387;SHT31;56575;48.942;8.404;2022-08-03T01:57:16;21.50;57.50
69387;SHT31;56575;48.942;8.404;2022-08-03T01:59:45;21.49;58.22
69387;SHT31;56575;48.942;8.404;2022-08-03T02:02:15;21.49;58.12
69387;SHT31;56575;48.942;8.404;2022-08-03T02:04:42;21.45;57.68
69387;SHT31;56575;48.942;8.404;2022-08-03T02:07:09;21.42;58.53
69387;SHT31;56575;48.942;8.404;2022-08-03T02:09:38;21.36;58.22
69387;SHT31;56575;48.942;8.404;2022-08-03T02:12:07;21.29;58.70
69387;SHT31;56575;48.942;8.404;2022-08-03T02:14:34;21.23;58.66
69387;SHT31;56575;48.942;8.404;2022-08-03T02:17:00;21.19;58.93
69387;SHT31;56575;48.942;8.404;2022-08-03T02:19:26;21.15;59.39
69387;SHT31;56575;48.942;8.404;2022-08-03T02:21:53;21.16;59.94
69387;SHT31;56575;48.942;8.404;2022-08-03T02:24:21;21.13;58.58
69387;SHT31;56575;48.942;8.404;2022-08-03T02:26:47;21.15;58.41
69387;SHT31;56575;48.942;8.404;2022-08-03T02:29:19;21.09;59.34
69387;SHT31;56575;48.942;8.404;2022-08-03T02:31:46;20.98;59.88
69387;SHT31;56575;48.942;8.404;2022-08-03T02:34:18;20.98;59.86
69387;SHT31;56575;48.942;8.404;2022-08-03T02:36:48;20.96;59.14
69387;SHT31;56575;48.942;8.404;2022-08-03T02:39:16;20.95;59.29
69387;SHT31;56575;48.942;8.404;2022-08-03T02:41:49;20.94;59.10
69387;SHT31;56575;48.942;8.404;2022-08-03T02:44:18;20.92;59.80
69387;SHT31;56575;48.942;8.404;2022-08-03T02:46:47;20.88;60.03
69387;SHT31;56575;48.942;8.404;2022-08-03T02:49:15;20.80;59.62
69387;SHT31;56575;48.942;8.404;2022-08-03T02:51:44;20.81;60.11
69387;SHT31;56575;48.942;8.404;2022-08-03T02:54:14;20.81;59.83
69387;SHT31;56575;48.942;8.404;2022-08-03T02:56:42;20.81;59.71
69387;SHT31;56575;48.942;8.404;2022-08-03T02:59:09;20.81;60.24
69387;SHT31;56575;48.942;8.404;2022-08-03T03:01:37;20.77;59.79
69387;SHT31;56575;48.942;8.404;2022-08-03T03:04:04;20.77;60.37
69387;SHT31;56575;48.942;8.404;2022-08-03T03:06:34;20.71;60.11
69387;SHT31;56575;48.942;8.404;2022-08-03T03:09:00;20.67;60.80
69387;SHT31;56575;48.942;8.404;2022-08-03T03:11:26;20.65;60.82
69387;SHT31;56575;48.942;8.404;2022-08-03T03:13:55;20.64;60.65
69387;SHT31;56575;48.942;8.404;2022-08-03T03:16:25;20.57;60.69
69387;SHT31;56575;48.942;8.404;2022-08-03T03:18:55;20.58;60.36
69387;SHT31;56575;48.942;8.404;2022-08-03T03:21:22;20.57;60.53
69387;SHT31;56575;48.942;8.404;2022-08-03T03:23:49;20.54;60.43
69387;SHT31;56575;48.942;8.404;2022-08-03T03:26:15;20.53;60.67
69387;SHT31;56575;48.942;8.404;2022-08-03T03:28:41;20.51;60.58
69387;SHT31;56575;48.942;8.404;2022-08-03T03:31:10;20.50;60.51
69387;SHT31;56575;48.942;8.404;2022-08-03T03:33:36;20.53;60.89
69387;SHT31;56575;48.942;8.404;2022-08-03T03:36:05;20.57;60.41
69387;SHT31;56575;48.942;8.404;2022-08-03T03:38:42;20.54;60.40
69387;SHT31;56575;48.942;8.404;2022-08-03T03:41:12;20.51;61.28
69387;SHT31;56575;48.942;8.404;2022-08-03T03:43:43;20.44;61.07
69387;SHT31;56575;48.942;8.404;2022-08-03T03:46:12;20.41;61.15
69387;SHT31;56575;48.942;8.404;2022-08-03T03:48:41;20.39;60.94
69387;SHT31;56575;48.942;8.404;2022-08-03T03:51:06;20.43;61.23
69387;SHT31;56575;48.942;8.404;2022-08-03T03:53:32;20.47;61.14
69387;SHT31;56575;48.942;8.404;2022-08-03T03:56:02;20.47;60.84
69387;SHT31;56575;48.942;8.404;2022-08-03T03:58:29;20.44;60.79
69387;SHT31;56575;48.942;8.404;2022-08-03T04:00:55;20.43;61.00
69387;SHT31;56575;48.942;8.404;2022-08-03T04:03:23;20.34;60.95
69387;SHT31;56575;48.942;8.404;2022-08-03T04:05:49;20.25;61.06
69387;SHT31;56575;48.942;8.404;2022-08-03T04:08:47;20.25;61.52
69387;SHT31;56575;48.942;8.404;2022-08-03T04:11:35;20.19;61.18
69387;SHT31;56575;48.942;8.404;2022-08-03T04:14:07;20.20;61.69
69387;SHT31;56575;48.942;8.404;2022-08-03T04:16:38;20.18;61.10
69387;SHT31;56575;48.942;8.404;2022-08-03T04:19:11;20.22;61.99
69387;SHT31;56575;48.942;8.404;2022-08-03T04:21:40;20.20;62.01
69387;SHT31;56575;48.942;8.404;2022-08-03T04:24:08;20.22;61.86
69387;SHT31;56575;48.942;8.404;2022-08-03T04:26:38;20.22;61.43
69387;SHT31;56575;48.942;8.404;2022-08-03T04:29:05;20.25;61.65
69387;SHT31;56575;48.942;8.404;2022-08-03T04:31:31;20.25;61.14
69387;SHT31;56575;48.942;8.404;2022-08-03T04:33:57;20.23;61.34
69387;SHT31;56575;48.942;8.404;2022-08-03T04:39:18;20.25;61.75
69387;SHT31;56575;48.942;8.404;2022-08-03T04:41:59;20.26;61.57
69387;SHT31;56575;48.942;8.404;2022-08-03T04:44:27;20.34;61.31
69387;SHT31;56575;48.942;8.404;2022-08-03T04:46:53;20.36;61.36
69387;SHT31;56575;48.942;8.404;2022-08-03T04:49:19;20.33;61.12
69387;SHT31;56575;48.942;8.404;2022-08-03T04:51:47;20.39;60.52
69387;SHT31;56575;48.942;8.404;2022-08-03T04:54:13;20.40;60.80
69387;SHT31;56575;48.942;8.404;2022-08-03T04:56:40;20.43;60.68
69387;SHT31;56575;48.942;8.404;2022-08-03T04:59:07;20.47;60.44
69387;SHT31;56575;48.942;8.404;2022-08-03T05:01:32;20.47;60.67
69387;SHT31;56575;48.942;8.404;2022-08-03T05:03:58;20.48;60.20
69387;SHT31;56575;48.942;8.404;2022-08-03T05:06:24;20.51;59.68
69387;SHT31;56575;48.942;8.404;2022-08-03T05:08:49;20.53;59.33
69387;SHT31;56575;48.942;8.404;2022-08-03T05:11:15;20.51;59.34
69387;SHT31;56575;48.942;8.404;2022-08-03T05:13:42;20.57;59.66
69387;SHT31;56575;48.942;8.404;2022-08-03T05:16:11;20.63;60.06
69387;SHT31;56575;48.942;8.404;2022-08-03T05:18:36;20.65;59.51
69387;SHT31;56575;48.942;8.404;2022-08-03T05:21:02;20.68;59.30
69387;SHT31;56575;48.942;8.404;2022-08-03T05:23:29;20.73;59.04
69387;SHT31;56575;48.942;8.404;2022-08-03T05:25:55;20.77;59.47
69387;SHT31;56575;48.942;8.404;2022-08-03T05:28:23;20.87;59.44
69387;SHT31;56575;48.942;8.404;2022-08-03T05:30:49;20.91;59.40
69387;SHT31;56575;48.942;8.404;2022-08-03T05:33:14;20.92;59.30
69387;SHT31;56575;48.942;8.404;2022-08-03T05:35:40;20.90;59.28
69387;SHT31;56575;48.942;8.404;2022-08-03T05:38:05;20.92;59.15
69387;SHT31;56575;48.942;8.404;2022-08-03T05:40:31;20.98;59.30
69387;SHT31;56575;48.942;8.404;2022-08-03T05:42:57;21.02;59.17
69387;SHT31;56575;48.942;8.404;2022-08-03T05:45:23;21.03;59.35
69387;SHT31;56575;48.942;8.404;2022-08-03T05:47:48;21.08;58.99
69387;SHT31;56575;48.942;8.404;2022-08-03T05:50:16;21.12;58.81
69387;SHT31;56575;48.942;8.404;2022-08-03T05:52:43;21.18;59.15
69387;SHT31;56575;48.942;8.404;2022-08-03T05:55:09;21.23;59.32
69387;SHT31;56575;48.942;8.404;2022-08-03T05:57:36;21.28;58.50
69387;SHT31;56575;48.942;8.404;2022-08-03T06:00:07;21.32;58.06
69387;SHT31;56575;48.942;8.404;2022-08-03T06:02:33;21.37;58.83
69387;SHT31;56575;48.942;8.404;2022-08-03T06:04:59;21.46;58.81
69387;SHT31;56575;48.942;8.404;2022-08-03T06:07:24;21.53;58.65
69387;SHT31;56575;48.942;8.404;2022-08-03T06:09:50;21.61;58.68
69387;SHT31;56575;48.942;8.404;2022-08-03T06:12:15;21.67;58.45
69387;SHT31;56575;48.942;8.404;2022-08-03T06:14:41;21.70;58.40
69387;SHT31;56575;48.942;8.404;2022-08-03T06:17:06;21.77;58.34
69387;SHT31;56575;48.942;8.404;2022-08-03T06:19:32;21.82;58.27
69387;SHT31;56575;48.942;8.404;2022-08-03T06:21:57;21.91;58.93
69387;SHT31;56575;48.942;8.404;2022-08-03T06:24:23;21.98;58.16
69387;SHT31;56575;48.942;8.404;2022-08-03T06:26:48;22.05;58.77
69387;SHT31;56575;48.942;8.404;2022-08-03T06:29:14;22.11;59.03
69387;SHT31;56575;48.942;8.404;2022-08-03T06:31:39;22.13;58.33
69387;SHT31;56575;48.942;8.404;2022-08-03T06:34:05;22.25;61.36
69387;SHT31;56575;48.942;8.404;2022-08-03T06:36:30;22.28;59.96
69387;SHT31;56575;48.942;8.404;2022-08-03T06:39:00;22.36;59.11
69387;SHT31;56575;48.942;8.404;2022-08-03T06:41:26;22.43;60.63
69387;SHT31;56575;48.942;8.404;2022-08-03T06:43:52;22.53;58.35
69387;SHT31;56575;48.942;8.404;2022-08-03T06:46:18;22.57;56.79
69387;SHT31;56575;48.942;8.404;2022-08-03T06:48:44;22.65;56.50
69387;SHT31;56575;48.942;8.404;2022-08-03T06:51:09;22.70;57.70
69387;SHT31;56575;48.942;8.404;2022-08-03T06:53:35;22.77;55.72
69387;SHT31;56575;48.942;8.404;2022-08-03T06:56:00;22.84;56.05
69387;SHT31;56575;48.942;8.404;2022-08-03T06:58:26;22.91;54.72
69387;SHT31;56575;48.942;8.404;2022-08-03T07:00:51;22.98;54.80
69387;SHT31;56575;48.942;8.404;2022-08-03T07:03:17;23.05;54.94
69387;SHT31;56575;48.942;8.404;2022-08-03T07:05:43;23.09;54.54
69387;SHT31;56575;48.942;8.404;2022-08-03T07:08:11;23.16;54.52
69387;SHT31;56575;48.942;8.404;2022-08-03T07:10:36;23.25;53.94
69387;SHT31;56575;48.942;8.404;2022-08-03T07:13:04;23.30;54.23
69387;SHT31;56575;48.942;8.404;2022-08-03T07:15:30;23.41;54.12
69387;SHT31;56575;48.942;8.404;2022-08-03T07:17:56;23.47;54.33
69387;SHT31;56575;48.942;8.404;2022-08-03T07:20:22;23.53;53.72
69387;SHT31;56575;48.942;8.404;2022-08-03T07:22:47;23.63;53.84
69387;SHT31;56575;48.942;8.404;2022-08-03T07:25:13;23.70;53.47
69387;SHT31;56575;48.942;8.404;2022-08-03T07:27:45;23.77;53.27
69387;SHT31;56575;48.942;8.404;2022-08-03T07:30:11;23.80;53.10
69387;SHT31;56575;48.942;8.404;2022-08-03T07:32:38;23.85;53.10
69387;SHT31;56575;48.942;8.404;2022-08-03T07:35:04;23.90;53.12
69387;SHT31;56575;48.942;8.404;2022-08-03T07:37:30;23.98;52.21
69387;SHT31;56575;48.942;8.404;2022-08-03T07:39:56;24.02;51.33
69387;SHT31;56575;48.942;8.404;2022-08-03T07:42:22;24.08;51.07
69387;SHT31;56575;48.942;8.404;2022-08-03T07:44:48;24.14;52.55
69387;SHT31;56575;48.942;8.404;2022-08-03T07:47:28;24.17;51.83
69387;SHT31;56575;48.942;8.404;2022-08-03T07:49:54;24.21;51.64
69387;SHT31;56575;48.942;8.404;2022-08-03T07:52:20;24.29;52.49
69387;SHT31;56575;48.942;8.404;2022-08-03T07:55:07;24.37;51.42
69387;SHT31;56575;48.942;8.404;2022-08-03T07:57:33;24.46;51.05
69387;SHT31;56575;48.942;8.404;2022-08-03T07:59:59;24.53;50.98
69387;SHT31;56575;48.942;8.404;2022-08-03T08:02:24;24.66;51.51
69387;SHT31;56575;48.942;8.404;2022-08-03T08:04:50;24.72;50.85
69387;SHT31;56575;48.942;8.404;2022-08-03T08:07:15;24.79;50.70
69387;SHT31;56575;48.942;8.404;2022-08-03T08:09:41;24.84;51.20
69387;SHT31;56575;48.942;8.404;2022-08-03T08:12:06;24.91;50.65
69387;SHT31;56575;48.942;8.404;2022-08-03T08:14:34;25.00;49.96
69387;SHT31;56575;48.942;8.404;2022-08-03T08:17:00;25.12;49.83
69387;SHT31;56575;48.942;8.404;2022-08-03T08:19:25;25.25;49.74
69387;SHT31;56575;48.942;8.404;2022-08-03T08:21:51;25.32;49.26
69387;SHT31;56575;48.942;8.404;2022-08-03T08:24:16;25.39;49.12
69387;SHT31;56575;48.942;8.404;2022-08-03T08:26:42;25.50;49.36
69387;SHT31;56575;48.942;8.404;2022-08-03T08:29:08;25.62;48.98
69387;SHT31;56575;48.942;8.404;2022-08-03T08:31:34;25.76;48.63
69387;SHT31;56575;48.942;8.404;2022-08-03T08:33:59;25.81;48.57
69387;SHT31;56575;48.942;8.404;2022-08-03T08:36:31;25.89;48.69
69387;SHT31;56575;48.942;8.404;2022-08-03T08:38:56;25.97;48.43
69387;SHT31;56575;48.942;8.404;2022-08-03T08:41:22;26.07;47.80
69387;SHT31;56575;48.942;8.404;2022-08-03T08:43:47;26.14;49.06
69387;SHT31;56575;48.942;8.404;2022-08-03T08:46:13;26.26;47.53
69387;SHT31;56575;48.942;8.404;2022-08-03T08:48:40;26.36;47.92
69387;SHT31;56575;48.942;8.404;2022-08-03T08:51:08;26.46;47.25
69387;SHT31;56575;48.942;8.404;2022-08-03T08:53:36;26.57;48.74
69387;SHT31;56575;48.942;8.404;2022-08-03T08:56:03;26.64;46.84
69387;SHT31;56575;48.942;8.404;2022-08-03T08:58:33;26.78;46.42
69387;SHT31;56575;48.942;8.404;2022-08-03T09:01:01;26.89;46.62
69387;SHT31;56575;48.942;8.404;2022-08-03T09:03:26;27.03;46.62
69387;SHT31;56575;48.942;8.404;2022-08-03T09:05:52;27.27;46.58
69387;SHT31;56575;48.942;8.404;2022-08-03T09:08:17;27.45;45.19
69387;SHT31;56575;48.942;8.404;2022-08-03T09:10:42;27.67;44.77
69387;SHT31;56575;48.942;8.404;2022-08-03T09:13:08;27.78;44.99
69387;SHT31;56575;48.942;8.404;2022-08-03T09:15:34;27.87;46.09
69387;SHT31;56575;48.942;8.404;2022-08-03T09:18:01;27.97;45.00
69387;SHT31;56575;48.942;8.404;2022-08-03T09:20:32;28.06;44.35
69387;SHT31;56575;48.942;8.404;2022-08-03T09:23:00;28.21;43.75
69387;SHT31;56575;48.942;8.404;2022-08-03T09:25:37;28.27;44.07
69387;SHT31;56575;48.942;8.404;2022-08-03T09:28:10;28.34;45.68
69387;SHT31;56575;48.942;8.404;2022-08-03T09:30:41;28.45;44.00
69387;SHT31;56575;48.942;8.404;2022-08-03T09:33:09;28.62;43.70
69387;SHT31;56575;48.942;8.404;2022-08-03T09:35:47;28.73;45.54
69387;SHT31;56575;48.942;8.404;2022-08-03T09:38:21;28.82;43.83
69387;SHT31;56575;48.942;8.404;2022-08-03T09:40:52;28.89;42.83
69387;SHT31;56575;48.942;8.404;2022-08-03T09:43:18;29.02;43.63
69387;SHT31;56575;48.942;8.404;2022-08-03T09:45:43;29.21;41.83
69387;SHT31;56575;48.942;8.404;2022-08-03T09:48:25;29.38;41.21
69387;SHT31;56575;48.942;8.404;2022-08-03T09:50:53;29.45;40.99
69387;SHT31;56575;48.942;8.404;2022-08-03T09:53:19;29.48;42.36
69387;SHT31;56575;48.942;8.404;2022-08-03T09:55:56;29.59;40.80
69387;SHT31;56575;48.942;8.404;2022-08-03T09:58:24;29.69;42.85
69387;SHT31;56575;48.942;8.404;2022-08-03T10:01:01;29.82;40.53
69387;SHT31;56575;48.942;8.404;2022-08-03T10:03:32;29.93;44.04
69387;SHT31;56575;48.942;8.404;2022-08-03T10:05:58;29.99;43.03
69387;SHT31;56575;48.942;8.404;2022-08-03T10:08:23;30.06;43.74
69387;SHT31;56575;48.942;8.404;2022-08-03T10:10:51;30.14;44.53
69387;SHT31;56575;48.942;8.404;2022-08-03T10:13:20;30.23;39.70
69387;SHT31;56575;48.942;8.404;2022-08-03T10:15:46;30.32;39.36
69387;SHT31;56575;48.942;8.404;2022-08-03T10:18:12;30.45;41.13
69387;SHT31;56575;48.942;8.404;2022-08-03T10:21:01;30.61;41.32
69387;SHT31;56575;48.942;8.404;2022-08-03T10:23:28;30.71;41.23
69387;SHT31;56575;48.942;8.404;2022-08-03T10:26:01;30.80;39.28
69387;SHT31;56575;48.942;8.404;2022-08-03T10:28:33;30.92;39.67
69387;SHT31;56575;48.942;8.404;2022-08-03T10:31:00;31.03;40.20
69387;SHT31;56575;48.942;8.404;2022-08-03T10:33:31;31.14;38.82
69387;SHT31;56575;48.942;8.404;2022-08-03T10:35:59;31.33;39.75
69387;SHT31;56575;48.942;8.404;2022-08-03T10:38:32;31.38;39.74
69387;SHT31;56575;48.942;8.404;2022-08-03T10:41:00;31.47;39.84
69387;SHT31;56575;48.942;8.404;2022-08-03T10:46:14;31.69;39.54
69387;SHT31;56575;48.942;8.404;2022-08-03T10:48:41;31.84;38.76
69387;SHT31;56575;48.942;8.404;2022-08-03T10:51:07;31.97;36.84
69387;SHT31;56575;48.942;8.404;2022-08-03T10:53:37;32.12;36.77
69387;SHT31;56575;48.942;8.404;2022-08-03T10:56:04;32.20;36.76
69387;SHT31;56575;48.942;8.404;2022-08-03T10:58:49;32.30;36.96
69387;SHT31;56575;48.942;8.404;2022-08-03T11:01:16;32.37;36.45
69387;SHT31;56575;48.942;8.404;2022-08-03T11:06:20;32.78;37.43
69387;SHT31;56575;48.942;8.404;2022-08-03T11:08:47;32.92;37.00
69387;SHT31;56575;48.942;8.404;2022-08-03T11:19:10;33.58;36.83
69387;SHT31;56575;48.942;8.404;2022-08-03T11:27:20;33.97;34.29
69387;SHT31;56575;48.942;8.404;2022-08-03T11:35:23;34.35;33.29
69387;SHT31;56575;48.942;8.404;2022-08-03T11:46:04;35.16;31.96
69387;SHT31;56575;48.942;8.404;2022-08-03T11:51:00;35.26;30.95
69387;SHT31;56575;48.942;8.404;2022-08-03T11:53:26;35.66;33.99
69387;SHT31;56575;48.942;8.404;2022-08-03T11:55:52;36.00;31.37
69387;SHT31;56575;48.942;8.404;2022-08-03T11:58:22;36.36;30.02
69387;SHT31;56575;48.942;8.404;2022-08-03T12:00:49;36.69;30.45
69387;SHT31;56575;48.942;8.404;2022-08-03T12:03:17;37.14;30.61
69387;SHT31;56575;48.942;8.404;2022-08-03T12:05:47;37.57;29.53
69387;SHT31;56575;48.942;8.404;2022-08-03T12:08:16;37.75;28.90
69387;SHT31;56575;48.942;8.404;2022-08-03T12:10:47;37.87;30.01
69387;SHT31;56575;48.942;8.404;2022-08-03T12:13:17;38.10;27.46
69387;SHT31;56575;48.942;8.404;2022-08-03T12:15:56;38.42;30.00
69387;SHT31;56575;48.942;8.404;2022-08-03T12:18:23;38.66;28.73
69387;SHT31;56575;48.942;8.404;2022-08-03T12:20:54;38.99;28.41
69387;SHT31;56575;48.942;8.404;2022-08-03T12:23:27;38.92;28.79
69387;SHT31;56575;48.942;8.404;2022-08-03T12:26:01;38.96;27.78
69387;SHT31;56575;48.942;8.404;2022-08-03T12:28:26;38.96;26.67
69387;SHT31;56575;48.942;8.404;2022-08-03T12:30:52;38.98;26.31
69387;SHT31;56575;48.942;8.404;2022-08-03T12:35:45;38.58;26.65
69387;SHT31;56575;48.942;8.404;2022-08-03T12:38:11;38.92;27.30
69387;SHT31;56575;48.942;8.404;2022-08-03T12:40:39;39.17;26.53
69387;SHT31;56575;48.942;8.404;2022-08-03T12:43:12;39.26;27.30
69387;SHT31;56575;48.942;8.404;2022-08-03T12:45:38;38.98;26.23
69387;SHT31;56575;48.942;8.404;2022-08-03T12:48:08;39.10;27.15
69387;SHT31;56575;48.942;8.404;2022-08-03T12:50:36;39.37;27.29
69387;SHT31;56575;48.942;8.404;2022-08-03T12:53:04;39.44;27.57
69387;SHT31;56575;48.942;8.404;2022-08-03T12:55:30;39.60;26.08
69387;SHT31;56575;48.942;8.404;2022-08-03T12:58:03;39.71;25.93
69387;SHT31;56575;48.942;8.404;2022-08-03T13:00:29;39.62;25.50
69387;SHT31;56575;48.942;8.404;2022-08-03T13:03:06;39.46;26.23
69387;SHT31;56575;48.942;8.404;2022-08-03T13:05:41;39.10;26.03
69387;SHT31;56575;48.942;8.404;2022-08-03T13:08:17;38.71;26.80
69387;SHT31;56575;48.942;8.404;2022-08-03T13:10:43;38.59;26.79
69387;SHT31;56575;48.942;8.404;2022-08-03T13:13:10;38.55;28.43
69387;SHT31;56575;48.942;8.404;2022-08-03T13:15:35;38.75;27.73
69387;SHT31;56575;48.942;8.404;2022-08-03T13:18:00;38.51;27.91
69387;SHT31;56575;48.942;8.404;2022-08-03T13:20:26;38.34;28.18
69387;SHT31;56575;48.942;8.404;2022-08-03T13:22:51;38.68;28.36
69387;SHT31;56575;48.942;8.404;2022-08-03T13:25:17;38.62;27.25
69387;SHT31;56575;48.942;8.404;2022-08-03T13:27:42;38.62;28.80
69387;SHT31;56575;48.942;8.404;2022-08-03T13:30:08;38.52;28.72
69387;SHT31;56575;48.942;8.404;2022-08-03T13:32:34;38.27;28.74
69387;SHT31;56575;48.942;8.404;2022-08-03T13:35:00;38.06;29.62
69387;SHT31;56575;48.942;8.404;2022-08-03T13:37:28;37.99;29.99
69387;SHT31;56575;48.942;8.404;2022-08-03T13:39:53;37.89;30.30
69387;SHT31;56575;48.942;8.404;2022-08-03T13:42:19;37.83;30.42
69387;SHT31;56575;48.942;8.404;2022-08-03T13:44:44;37.86;30.37
69387;SHT31;56575;48.942;8.404;2022-08-03T13:47:10;37.52;30.43
69387;SHT31;56575;48.942;8.404;2022-08-03T13:49:38;37.49;30.35
69387;SHT31;56575;48.942;8.404;2022-08-03T13:52:06;37.52;30.59
69387;SHT31;56575;48.942;8.404;2022-08-03T13:54:31;37.24;28.52
69387;SHT31;56575;48.942;8.404;2022-08-03T13:56:58;37.06;28.39
69387;SHT31;56575;48.942;8.404;2022-08-03T13:59:24;36.76;29.47
69387;SHT31;56575;48.942;8.404;2022-08-03T14:01:51;36.57;28.82
69387;SHT31;56575;48.942;8.404;2022-08-03T14:04:17;36.55;29.15
69387;SHT31;56575;48.942;8.404;2022-08-03T14:06:43;36.52;29.70
69387;SHT31;56575;48.942;8.404;2022-08-03T14:09:12;36.51;29.56
69387;SHT31;56575;48.942;8.404;2022-08-03T14:11:43;36.53;28.96
69387;SHT31;56575;48.942;8.404;2022-08-03T14:14:08;36.56;28.78
69387;SHT31;56575;48.942;8.404;2022-08-03T14:16:35;36.59;30.83
69387;SHT31;56575;48.942;8.404;2022-08-03T14:19:04;36.65;30.25
69387;SHT31;56575;48.942;8.404;2022-08-03T14:21:40;36.68;29.99
69387;SHT31;56575;48.942;8.404;2022-08-03T14:24:09;36.60;28.50
69387;SHT31;56575;48.942;8.404;2022-08-03T14:26:34;36.57;29.05
69387;SHT31;56575;48.942;8.404;2022-08-03T14:29:00;36.49;29.66
69387;SHT31;56575;48.942;8.404;2022-08-03T14:31:25;36.51;29.62
69387;SHT31;56575;48.942;8.404;2022-08-03T14:33:51;36.49;29.14
69387;SHT31;56575;48.942;8.404;2022-08-03T14:36:16;36.52;30.08
69387;SHT31;56575;48.942;8.404;2022-08-03T14:38:41;36.62;30.56
69387;SHT31;56575;48.942;8.404;2022-08-03T14:41:07;36.66;32.07
69387;SHT31;56575;48.942;8.404;2022-08-03T14:43:32;36.76;32.09
69387;SHT31;56575;48.942;8.404;2022-08-03T14:46:08;36.73;31.38
69387;SHT31;56575;48.942;8.404;2022-08-03T14:48:40;36.72;29.32
69387;SHT31;56575;48.942;8.404;2022-08-03T14:51:05;36.68;29.94
69387;SHT31;56575;48.942;8.404;2022-08-03T14:53:33;36.65;30.44
69387;SHT31;56575;48.942;8.404;2022-08-03T14:55:59;36.68;29.83
69387;SHT31;56575;48.942;8.404;2022-08-03T14:58:27;36.39;29.13
69387;SHT31;56575;48.942;8.404;2022-08-03T15:00:54;36.43;29.60
69387;SHT31;56575;48.942;8.404;2022-08-03T15:03:21;36.46;31.75
69387;SHT31;56575;48.942;8.404;2022-08-03T15:06:14;36.41;29.01
69387;SHT31;56575;48.942;8.404;2022-08-03T15:08:40;36.45;28.94
69387;SHT31;56575;48.942;8.404;2022-08-03T15:11:21;36.36;29.40
69387;SHT31;56575;48.942;8.404;2022-08-03T15:13:46;36.46;29.38
69387;SHT31;56575;48.942;8.404;2022-08-03T15:16:12;36.52;31.71
69387;SHT31;56575;48.942;8.404;2022-08-03T15:18:46;36.56;32.16
69387;SHT31;56575;48.942;8.404;2022-08-03T15:21:29;36.62;30.20
69387;SHT31;56575;48.942;8.404;2022-08-03T15:23:55;36.60;29.11
69387;SHT31;56575;48.942;8.404;2022-08-03T15:26:20;36.66;29.20
69387;SHT31;56575;48.942;8.404;2022-08-03T15:28:46;36.70;30.37
69387;SHT31;56575;48.942;8.404;2022-08-03T15:33:51;36.75;28.77
69387;SHT31;56575;48.942;8.404;2022-08-03T15:36:17;36.62;28.83
69387;SHT31;56575;48.942;8.404;2022-08-03T15:38:43;36.56;28.98
69387;SHT31;56575;48.942;8.404;2022-08-03T15:41:13;36.56;29.58
69387;SHT31;56575;48.942;8.404;2022-08-03T15:43:40;36.55;28.82
69387;SHT31;56575;48.942;8.404;2022-08-03T15:46:06;36.63;31.11
69387;SHT31;56575;48.942;8.404;2022-08-03T15:48:32;36.72;31.46
69387;SHT31;56575;48.942;8.404;2022-08-03T15:51:01;36.68;31.19
69387;SHT31;56575;48.942;8.404;2022-08-03T15:53:26;36.69;30.64
69387;SHT31;56575;48.942;8.404;2022-08-03T15:55:53;36.75;30.14
69387;SHT31;56575;48.942;8.404;2022-08-03T15:58:19;36.80;30.45
69387;SHT31;56575;48.942;8.404;2022-08-03T16:00:44;36.80;30.16
69387;SHT31;56575;48.942;8.404;2022-08-03T16:03:10;36.82;29.97
69387;SHT31;56575;48.942;8.404;2022-08-03T16:05:36;36.75;28.77
69387;SHT31;56575;48.942;8.404;2022-08-03T16:08:07;36.84;31.08
69387;SHT31;56575;48.942;8.404;2022-08-03T16:10:38;36.86;30.73
69387;SHT31;56575;48.942;8.404;2022-08-03T16:13:07;36.88;32.18
69387;SHT31;56575;48.942;8.404;2022-08-03T16:15:47;36.76;29.82
69387;SHT31;56575;48.942;8.404;2022-08-03T16:18:12;36.66;29.11
69387;SHT31;56575;48.942;8.404;2022-08-03T16:20:38;36.70;29.04
69387;SHT31;56575;48.942;8.404;2022-08-03T16:23:04;36.79;30.16
69387;SHT31;56575;48.942;8.404;2022-08-03T16:25:30;36.80;29.42
69387;SHT31;56575;48.942;8.404;2022-08-03T16:27:55;36.83;29.06
69387;SHT31;56575;48.942;8.404;2022-08-03T16:30:21;36.82;29.52
69387;SHT31;56575;48.942;8.404;2022-08-03T16:32:58;36.68;28.41
69387;SHT31;56575;48.942;8.404;2022-08-03T16:35:24;36.57;30.20